createdAt,value
2019-05-07T00:01:27.834Z,99.90
2019-05-07T00:03:55.314Z,99.90
2019-05-07T00:06:23.209Z,99.90
2019-05-07T00:08:52.266Z,99.90
2019-05-07T00:11:22.204Z,99.90
2019-05-07T00:13:48.851Z,99.90
2019-05-07T00:16:16.231Z,99.90
2019-05-07T00:18:43.500Z,99.90
2019-05-07T00:21:12.616Z,99.90
2019-05-07T00:23:52.659Z,99.90
2019-05-07T00:26:22.424Z,99.90
2019-05-07T00:28:49.301Z,99.90
2019-05-07T00:31:16.492Z,99.90
2019-05-07T00:33:43.864Z,99.90
2019-05-07T00:36:18.529Z,99.90
2019-05-07T00:38:51.968Z,99.90
2019-05-07T00:41:52.236Z,99.90
2019-05-07T00:44:21.978Z,99.90
2019-05-07T00:46:49.236Z,99.90
2019-05-07T00:49:17.251Z,99.90
2019-05-07T00:51:44.633Z,99.90
2019-05-07T00:54:12.336Z,99.90
2019-05-07T00:56:39.713Z,99.90
2019-05-07T00:59:07.003Z,99.90
2019-05-07T01:01:35.079Z,99.90
2019-05-07T01:04:02.908Z,99.90
2019-05-07T01:06:30.291Z,99.90
2019-05-07T01:08:57.650Z,99.90
2019-05-07T01:11:24.826Z,99.90
2019-05-07T01:13:52.488Z,99.90
2019-05-07T01:16:22.048Z,99.90
2019-05-07T01:18:48.884Z,99.90
2019-05-07T01:21:16.246Z,99.90
2019-05-07T01:23:43.523Z,99.90
2019-05-07T01:26:12.415Z,99.90
2019-05-07T01:28:58.219Z,99.90
2019-05-07T01:31:29.048Z,99.90
2019-05-07T01:34:20.366Z,99.90
2019-05-07T01:36:47.629Z,99.90
2019-05-07T01:39:14.776Z,99.90
2019-05-07T01:41:42.325Z,99.90
2019-05-07T01:44:09.479Z,99.90
2019-05-07T01:46:36.648Z,99.90
2019-05-07T01:49:04.038Z,99.90
2019-05-07T01:51:42.102Z,99.90
2019-05-07T01:54:09.083Z,99.90
2019-05-07T01:56:36.314Z,99.90
2019-05-07T01:59:03.929Z,99.90
2019-05-07T02:01:33.175Z,99.90
2019-05-07T02:04:07.794Z,99.90
2019-05-07T02:07:02.646Z,99.90
2019-05-07T02:09:52.473Z,99.90
2019-05-07T02:12:24.087Z,99.90
2019-05-07T02:14:53.053Z,99.90
2019-05-07T02:17:22.673Z,99.90
2019-05-07T02:19:49.866Z,99.90
2019-05-07T02:22:17.227Z,99.90
2019-05-07T02:24:44.377Z,99.90
2019-05-07T02:27:12.613Z,99.90
2019-05-07T02:29:40.091Z,99.90
2019-05-07T02:32:07.387Z,99.90
2019-05-07T02:34:34.814Z,99.90
2019-05-07T02:37:04.335Z,99.90
2019-05-07T02:39:44.317Z,99.90
2019-05-07T02:42:13.010Z,99.90
2019-05-07T02:44:59.342Z,99.90
2019-05-07T02:47:27.560Z,99.90
2019-05-07T02:50:02.821Z,99.90
2019-05-07T02:53:06.501Z,99.90
2019-05-07T02:55:45.160Z,99.90
2019-05-07T02:58:13.774Z,99.90
2019-05-07T03:00:43.434Z,99.90
2019-05-07T03:03:13.813Z,99.90
2019-05-07T03:05:43.146Z,99.90
2019-05-07T03:08:13.415Z,99.90
2019-05-07T03:10:43.156Z,99.90
2019-05-07T03:13:09.801Z,99.90
2019-05-07T03:15:46.358Z,99.90
2019-05-07T03:18:16.727Z,99.90
2019-05-07T03:20:54.059Z,99.90
2019-05-07T03:23:25.732Z,99.90
2019-05-07T03:25:57.956Z,99.90
2019-05-07T03:28:25.835Z,99.90
2019-05-07T03:31:05.986Z,99.90
2019-05-07T03:34:07.562Z,99.90
2019-05-07T03:36:48.563Z,99.90
2019-05-07T03:39:16.109Z,99.90
2019-05-07T03:41:43.973Z,99.90
2019-05-07T03:44:33.759Z,99.90
2019-05-07T03:47:18.088Z,99.90
2019-05-07T03:49:45.444Z,99.90
2019-05-07T03:52:13.652Z,99.90
2019-05-07T03:54:43.027Z,99.90
2019-05-07T03:57:11.537Z,99.90
2019-05-07T03:59:39.494Z,99.90
2019-05-07T04:02:10.169Z,99.90
2019-05-07T04:04:37.523Z,99.90
2019-05-07T04:07:05.200Z,99.90
2019-05-07T04:09:33.349Z,99.90
2019-05-07T04:12:03.584Z,99.90
2019-05-07T04:14:29.941Z,99.90
2019-05-07T04:17:13.303Z,99.90
2019-05-07T04:19:26.355Z,99.90
2019-05-07T04:21:53.618Z,99.90
2019-05-07T04:24:33.034Z,99.90
2019-05-07T04:27:06.265Z,99.90
2019-05-07T04:29:35.063Z,99.90
2019-05-07T04:32:03.334Z,99.90
2019-05-07T04:34:47.380Z,99.90
2019-05-07T04:37:17.377Z,99.90
2019-05-07T04:39:53.885Z,99.90
2019-05-07T04:42:24.332Z,99.90
2019-05-07T04:44:53.882Z,99.90
2019-05-07T04:47:34.527Z,99.90
2019-05-07T04:49:49.517Z,99.90
2019-05-07T04:52:24.227Z,99.90
2019-05-07T04:54:52.844Z,99.90
2019-05-07T04:57:26.514Z,99.90
2019-05-07T04:59:57.861Z,99.90
2019-05-07T05:02:43.526Z,99.90
2019-05-07T05:05:12.908Z,99.90
2019-05-07T05:07:42.878Z,99.90
2019-05-07T05:10:10.202Z,99.90
2019-05-07T05:12:37.463Z,99.90
2019-05-07T05:15:05.156Z,99.90
2019-05-07T05:17:46.233Z,99.90
2019-05-07T05:20:03.648Z,99.90
2019-05-07T05:22:53.494Z,99.90
2019-05-07T05:25:25.903Z,99.90
2019-05-07T05:27:53.058Z,99.90
2019-05-07T05:30:27.763Z,99.90
2019-05-07T05:32:55.005Z,99.90
2019-05-07T05:35:22.381Z,99.90
2019-05-07T05:37:49.538Z,99.90
2019-05-07T05:40:17.919Z,99.90
2019-05-07T05:42:52.534Z,99.90
2019-05-07T05:45:39.512Z,99.90
2019-05-07T05:48:08.410Z,99.90
2019-05-07T05:50:43.993Z,99.90
2019-05-07T05:53:33.809Z,99.90
2019-05-07T05:56:05.423Z,99.90
2019-05-07T05:58:43.086Z,99.90
2019-05-07T06:01:39.243Z,99.90
2019-05-07T06:04:35.289Z,99.90
2019-05-07T06:07:14.795Z,99.90
2019-05-07T06:09:54.563Z,99.90
2019-05-07T06:12:33.866Z,99.90
2019-05-07T06:15:30.044Z,99.90
2019-05-07T06:18:21.123Z,99.90
2019-05-07T06:20:52.169Z,99.90
2019-05-07T06:23:28.701Z,99.90
2019-05-07T06:25:56.138Z,99.90
2019-05-07T06:28:23.544Z,99.90
2019-05-07T06:30:52.743Z,99.90
2019-05-07T06:33:22.348Z,99.90
2019-05-07T06:35:52.324Z,99.90
2019-05-07T06:38:21.974Z,99.90
2019-05-07T06:41:15.307Z,99.90
2019-05-07T06:43:46.826Z,99.90
2019-05-07T06:46:16.378Z,99.90
2019-05-07T06:48:47.651Z,99.90
2019-05-07T06:51:17.384Z,99.90
2019-05-07T06:53:44.507Z,99.90
2019-05-07T06:56:12.311Z,99.90
2019-05-07T06:58:45.582Z,99.90
2019-05-07T07:01:32.281Z,99.90
2019-05-07T07:04:04.636Z,99.90
2019-05-07T07:06:39.067Z,99.90
2019-05-07T07:09:35.573Z,99.90
2019-05-07T07:12:06.649Z,99.90
2019-05-07T07:14:34.029Z,99.90
2019-05-07T07:17:02.274Z,99.90
2019-05-07T07:19:32.498Z,99.90
2019-05-07T07:22:02.367Z,99.90
2019-05-07T07:24:29.526Z,99.90
2019-05-07T07:26:57.231Z,99.90
2019-05-07T07:29:27.817Z,99.90
2019-05-07T07:31:58.159Z,99.90
2019-05-07T07:34:27.462Z,99.90
2019-05-07T07:37:08.247Z,99.90
2019-05-07T07:39:32.292Z,99.20
2019-05-07T07:42:02.939Z,99.90
2019-05-07T07:44:32.851Z,99.90
2019-05-07T07:47:02.335Z,99.10
2019-05-07T07:49:29.389Z,99.90
2019-05-07T07:51:57.712Z,99.00
2019-05-07T07:54:25.860Z,99.90
2019-05-07T07:57:02.471Z,99.30
2019-05-07T07:59:52.913Z,96.90
2019-05-07T08:02:28.991Z,97.50
2019-05-07T08:04:56.542Z,97.70
2019-05-07T08:07:24.007Z,96.80
2019-05-07T08:09:52.020Z,96.50
2019-05-07T08:12:22.169Z,95.50
2019-05-07T08:14:51.886Z,95.30
2019-05-07T08:17:19.419Z,94.10
2019-05-07T08:19:46.851Z,96.30
2019-05-07T08:22:14.327Z,95.20
2019-05-07T08:24:42.596Z,94.90
2019-05-07T08:27:14.696Z,93.00
2019-05-07T08:29:39.961Z,93.20
2019-05-07T08:32:36.642Z,93.50
2019-05-07T08:35:23.782Z,92.30
2019-05-07T08:37:52.666Z,92.50
2019-05-07T08:40:22.041Z,91.30
2019-05-07T08:42:52.512Z,90.70
2019-05-07T08:45:40.069Z,90.10
2019-05-07T08:48:12.767Z,92.00
2019-05-07T08:50:41.941Z,90.40
2019-05-07T08:53:09.499Z,91.40
2019-05-07T08:55:36.944Z,91.10
2019-05-07T08:58:04.707Z,91.40
2019-05-07T09:00:32.625Z,91.90
2019-05-07T09:03:01.670Z,88.20
2019-05-07T09:05:29.258Z,88.00
2019-05-07T09:07:59.102Z,90.10
2019-05-07T09:10:26.919Z,89.60
2019-05-07T09:12:54.391Z,90.40
2019-05-07T09:15:22.665Z,89.80
2019-05-07T09:17:50.240Z,87.70
2019-05-07T09:20:18.316Z,86.10
2019-05-07T09:22:45.836Z,86.20
2019-05-07T09:25:13.729Z,88.60
2019-05-07T09:27:43.756Z,81.90
2019-05-07T09:30:37.906Z,82.60
2019-05-07T09:33:16.436Z,79.20
2019-05-07T09:35:46.826Z,81.80
2019-05-07T09:38:14.223Z,81.60
2019-05-07T09:40:42.139Z,81.00
2019-05-07T09:43:15.555Z,75.60
2019-05-07T09:45:42.961Z,76.70
2019-05-07T09:48:11.990Z,76.00
2019-05-07T09:50:42.732Z,81.60
2019-05-07T09:53:12.552Z,75.10
2019-05-07T09:55:39.618Z,76.20
2019-05-07T09:58:07.166Z,76.60
2019-05-07T10:00:37.604Z,74.00
2019-05-07T10:03:15.523Z,75.20
2019-05-07T10:05:44.643Z,71.00
2019-05-07T10:08:13.421Z,67.90
2019-05-07T10:10:46.144Z,73.30
2019-05-07T10:13:25.104Z,73.00
2019-05-07T10:15:53.063Z,71.50
2019-05-07T10:18:22.706Z,69.90
2019-05-07T10:20:52.165Z,66.10
2019-05-07T10:23:19.776Z,66.70
2019-05-07T10:25:52.293Z,63.70
2019-05-07T10:28:28.963Z,65.60
2019-05-07T10:30:56.774Z,64.70
2019-05-07T10:33:24.516Z,62.70
2019-05-07T10:35:52.974Z,64.00
2019-05-07T10:38:21.832Z,66.10
2019-05-07T10:40:49.503Z,61.10
2019-05-07T10:43:16.949Z,64.70
2019-05-07T10:46:24.681Z,63.60
2019-05-07T10:49:12.313Z,62.60
2019-05-07T10:51:39.874Z,64.30
2019-05-07T10:54:07.419Z,64.60
2019-05-07T10:56:34.875Z,60.30
2019-05-07T10:59:02.885Z,59.70
2019-05-07T11:01:37.826Z,57.90
2019-05-07T11:04:05.555Z,57.50
2019-05-07T11:06:33.045Z,53.30
2019-05-07T11:09:00.426Z,54.70
2019-05-07T11:11:28.359Z,48.80
2019-05-07T11:13:56.212Z,51.80
2019-05-07T11:16:25.869Z,47.70
2019-05-07T11:18:53.170Z,50.80
2019-05-07T11:21:29.803Z,49.60
2019-05-07T11:23:59.039Z,48.90
2019-05-07T11:26:27.117Z,53.00
2019-05-07T11:28:54.380Z,58.60
2019-05-07T11:31:22.652Z,57.80
2019-05-07T11:33:51.999Z,59.30
2019-05-07T11:36:19.584Z,63.80
2019-05-07T11:38:47.279Z,62.20
2019-05-07T11:41:15.364Z,62.70
2019-05-07T11:44:01.761Z,62.60
2019-05-07T11:46:48.764Z,61.70
2019-05-07T11:49:22.757Z,62.70
2019-05-07T11:51:55.375Z,64.80
2019-05-07T11:54:22.637Z,66.00
2019-05-07T11:56:51.868Z,65.30
2019-05-07T11:59:18.855Z,67.20
2019-05-07T12:01:52.598Z,68.40
2019-05-07T12:04:19.404Z,66.90
2019-05-07T12:06:46.753Z,68.70
2019-05-07T12:09:13.914Z,66.20
2019-05-07T12:11:42.557Z,66.00
2019-05-07T12:14:12.156Z,68.00
2019-05-07T12:16:39.437Z,67.00
2019-05-07T12:19:06.921Z,66.50
2019-05-07T12:21:34.490Z,64.60
2019-05-07T12:24:02.254Z,65.00
2019-05-07T12:26:32.097Z,65.40
2019-05-07T12:28:59.391Z,63.40
2019-05-07T12:31:53.000Z,61.60
2019-05-07T12:34:25.023Z,61.00
2019-05-07T12:36:52.499Z,58.50
2019-05-07T12:39:21.815Z,56.10
2019-05-07T12:41:49.266Z,55.90
2019-05-07T12:44:16.762Z,56.30
2019-05-07T12:46:44.473Z,53.80
2019-05-07T12:49:12.189Z,55.70
2019-05-07T12:52:02.158Z,51.20
2019-05-07T12:54:47.302Z,53.10
2019-05-07T12:57:17.198Z,52.10
2019-05-07T12:59:44.855Z,53.60
2019-05-07T13:02:44.093Z,54.70
2019-05-07T13:05:11.854Z,56.60
2019-05-07T13:07:49.819Z,53.10
2019-05-07T13:10:17.098Z,54.10
2019-05-07T13:12:44.360Z,52.30
2019-05-07T13:15:23.871Z,50.10
2019-05-07T13:17:42.175Z,51.70
2019-05-07T13:20:12.075Z,52.20
2019-05-07T13:22:42.729Z,51.70
2019-05-07T13:25:10.706Z,54.80
2019-05-07T13:27:40.113Z,51.00
2019-05-07T13:30:07.477Z,49.40
2019-05-07T13:32:35.573Z,53.80
2019-05-07T13:35:03.986Z,49.10
2019-05-07T13:37:33.499Z,50.00
2019-05-07T13:40:08.840Z,50.00
2019-05-07T13:42:43.950Z,54.40
2019-05-07T13:45:24.109Z,50.20
2019-05-07T13:48:00.113Z,52.40
2019-05-07T13:50:27.483Z,51.40
2019-05-07T13:52:54.859Z,50.00
2019-05-07T13:55:22.263Z,49.90
2019-05-07T13:57:52.444Z,51.90
2019-05-07T14:00:26.941Z,51.30
2019-05-07T14:02:55.016Z,53.80
2019-05-07T14:05:28.294Z,52.70
2019-05-07T14:07:56.221Z,55.80
2019-05-07T14:10:26.268Z,53.50
2019-05-07T14:13:07.414Z,51.70
2019-05-07T14:15:23.321Z,51.20
2019-05-07T14:17:55.059Z,50.10
2019-05-07T14:20:24.894Z,50.00
2019-05-07T14:22:54.331Z,54.40
2019-05-07T14:25:21.882Z,49.80
2019-05-07T14:27:52.618Z,52.40
2019-05-07T14:30:21.744Z,52.30
2019-05-07T14:33:01.776Z,51.20
2019-05-07T14:35:36.295Z,52.10
2019-05-07T14:38:08.369Z,51.80
2019-05-07T14:40:39.208Z,52.20
2019-05-07T14:43:21.842Z,52.10
2019-05-07T14:45:49.067Z,51.80
2019-05-07T14:48:17.292Z,51.70
2019-05-07T14:50:45.108Z,54.00
2019-05-07T14:53:13.096Z,50.60
2019-05-07T14:55:41.852Z,52.70
2019-05-07T14:58:09.431Z,53.50
2019-05-07T15:00:45.187Z,53.10
2019-05-07T15:03:12.750Z,52.30
2019-05-07T15:05:43.539Z,51.90
2019-05-07T15:08:14.429Z,50.40
2019-05-07T15:10:42.791Z,52.20
2019-05-07T15:13:12.782Z,55.10
2019-05-07T15:15:40.987Z,50.20
2019-05-07T15:18:18.761Z,52.40
2019-05-07T15:20:46.073Z,51.90
2019-05-07T15:23:27.934Z,54.10
2019-05-07T15:25:56.720Z,50.00
2019-05-07T15:28:27.397Z,52.00
2019-05-07T15:31:20.172Z,51.50
2019-05-07T15:33:48.018Z,50.50
2019-05-07T15:36:15.524Z,51.10
2019-05-07T15:38:48.411Z,51.30
2019-05-07T15:41:15.911Z,52.00
2019-05-07T15:43:46.299Z,52.50
2019-05-07T15:46:13.686Z,53.30
2019-05-07T15:48:42.037Z,52.60
2019-05-07T15:51:09.439Z,53.80
2019-05-07T15:53:43.337Z,54.20
2019-05-07T15:56:12.475Z,53.30
2019-05-07T15:58:46.299Z,54.30
2019-05-07T16:01:14.483Z,53.60
2019-05-07T16:03:44.951Z,54.00
2019-05-07T16:06:13.024Z,54.00
2019-05-07T16:08:49.236Z,53.40
2019-05-07T16:11:19.718Z,52.80
2019-05-07T16:14:12.596Z,54.10
2019-05-07T16:16:43.662Z,53.80
2019-05-07T16:19:16.334Z,53.90
2019-05-07T16:21:45.814Z,53.90
2019-05-07T16:24:13.653Z,54.50
2019-05-07T16:26:45.653Z,55.30
2019-05-07T16:29:14.066Z,54.40
2019-05-07T16:31:48.943Z,54.40
2019-05-07T16:34:17.763Z,56.80
2019-05-07T16:36:45.442Z,53.40
2019-05-07T16:39:13.267Z,54.80
2019-05-07T16:41:42.301Z,56.40
2019-05-07T16:44:12.021Z,53.00
2019-05-07T16:46:39.125Z,54.40
2019-05-07T16:49:06.450Z,54.40
2019-05-07T16:51:33.861Z,53.50
2019-05-07T16:54:03.247Z,56.50
2019-05-07T16:56:30.417Z,53.60
2019-05-07T16:59:03.986Z,53.20
2019-05-07T17:01:32.459Z,53.60
2019-05-07T17:04:03.382Z,53.80
2019-05-07T17:06:32.179Z,55.20
2019-05-07T17:09:13.212Z,54.50
2019-05-07T17:11:40.576Z,52.30
2019-05-07T17:14:07.839Z,54.90
2019-05-07T17:16:35.343Z,54.30
2019-05-07T17:19:05.899Z,53.70
2019-05-07T17:21:35.820Z,55.00
2019-05-07T17:24:06.461Z,55.80
2019-05-07T17:26:33.890Z,53.60
2019-05-07T17:29:02.631Z,54.00
2019-05-07T17:31:31.867Z,54.10
2019-05-07T17:33:59.144Z,54.60
2019-05-07T17:36:26.533Z,54.40
2019-05-07T17:38:54.856Z,55.40
2019-05-07T17:41:27.041Z,55.70
2019-05-07T17:43:52.593Z,54.80
2019-05-07T17:46:23.008Z,54.70
2019-05-07T17:48:53.253Z,56.00
2019-05-07T17:51:42.181Z,55.90
2019-05-07T17:54:15.539Z,59.90
2019-05-07T17:56:43.205Z,63.60
2019-05-07T17:59:13.263Z,64.90
2019-05-07T18:02:01.919Z,66.50
2019-05-07T18:04:33.777Z,67.80
2019-05-07T18:07:02.836Z,69.20
2019-05-07T18:09:31.748Z,69.80
2019-05-07T18:11:58.877Z,70.90
2019-05-07T18:14:32.143Z,71.40
2019-05-07T18:17:15.658Z,71.90
2019-05-07T18:19:44.945Z,73.00
2019-05-07T18:22:16.039Z,73.60
2019-05-07T18:24:43.574Z,75.10
2019-05-07T18:27:17.452Z,77.20
2019-05-07T18:29:44.866Z,78.60
2019-05-07T18:32:21.754Z,80.50
2019-05-07T18:34:52.027Z,81.60
2019-05-07T18:37:19.929Z,83.60
2019-05-07T18:39:47.080Z,85.20
2019-05-07T18:42:16.785Z,86.60
2019-05-07T18:44:44.456Z,90.00
2019-05-07T18:47:12.960Z,90.70
2019-05-07T18:49:44.751Z,91.30
2019-05-07T18:52:14.062Z,92.80
2019-05-07T18:54:42.833Z,94.20
2019-05-07T18:57:11.009Z,95.50
2019-05-07T18:59:38.716Z,97.40
2019-05-07T19:02:06.789Z,98.60
2019-05-07T19:04:34.804Z,99.90
2019-05-07T19:07:02.958Z,99.90
2019-05-07T19:09:32.496Z,99.90
2019-05-07T19:12:00.417Z,99.90
2019-05-07T19:14:38.292Z,99.90
2019-05-07T19:17:05.729Z,99.90
2019-05-07T19:19:33.263Z,99.90
2019-05-07T19:22:02.166Z,99.90
2019-05-07T19:24:43.722Z,99.90
2019-05-07T19:26:59.265Z,99.90
2019-05-07T19:29:28.726Z,99.90
2019-05-07T19:31:56.172Z,99.90
2019-05-07T19:34:23.762Z,99.90
2019-05-07T19:36:52.076Z,99.90
2019-05-07T19:39:20.431Z,99.90
2019-05-07T19:41:47.854Z,99.90
2019-05-07T19:44:15.783Z,99.90
2019-05-07T19:46:44.093Z,99.90
2019-05-07T19:49:13.150Z,99.90
2019-05-07T19:51:42.690Z,99.90
2019-05-07T19:54:10.156Z,99.90
2019-05-07T19:56:38.509Z,99.90
2019-05-07T19:59:06.407Z,99.90
2019-05-07T20:01:46.419Z,99.90
2019-05-07T20:04:15.296Z,99.90
2019-05-07T20:06:43.687Z,99.90
2019-05-07T20:09:15.423Z,99.90
2019-05-07T20:11:47.268Z,99.90
2019-05-07T20:14:17.895Z,99.90
2019-05-07T20:16:45.774Z,99.90
2019-05-07T20:19:13.852Z,99.90
2019-05-07T20:21:41.501Z,99.90
2019-05-07T20:24:08.939Z,99.90
2019-05-07T20:26:36.480Z,99.90
2019-05-07T20:29:04.258Z,99.90
2019-05-07T20:31:33.140Z,99.90
2019-05-07T20:34:02.330Z,99.90
2019-05-07T20:36:29.877Z,99.90
2019-05-07T20:38:57.304Z,99.90
2019-05-07T20:41:24.639Z,99.90
2019-05-07T20:43:52.452Z,99.90
2019-05-07T20:46:20.001Z,99.90
2019-05-07T20:48:47.505Z,99.90
2019-05-07T20:51:15.085Z,99.90
2019-05-07T20:53:58.208Z,99.90
2019-05-07T20:56:28.616Z,99.90
2019-05-07T20:58:57.275Z,99.90
2019-05-07T21:01:25.357Z,99.90
2019-05-07T21:03:53.344Z,99.90
2019-05-07T21:06:22.527Z,99.90
2019-05-07T21:08:50.054Z,99.90
2019-05-07T21:11:17.870Z,99.90
2019-05-07T21:13:45.249Z,99.90
2019-05-07T21:16:13.206Z,99.90
2019-05-07T21:18:42.114Z,99.90
2019-05-07T21:21:12.309Z,99.90
2019-05-07T21:23:39.482Z,99.90
2019-05-07T21:26:06.875Z,99.90
2019-05-07T21:28:34.129Z,99.90
2019-05-07T21:31:02.762Z,99.90
2019-05-07T21:33:32.237Z,99.90
2019-05-07T21:35:59.548Z,99.90
2019-05-07T21:38:27.217Z,99.90
2019-05-07T21:40:54.620Z,99.90
2019-05-07T21:43:29.917Z,99.90
2019-05-07T21:45:57.961Z,99.90
2019-05-07T21:48:25.263Z,99.90
2019-05-07T21:50:53.498Z,99.90
2019-05-07T21:53:26.640Z,99.90
2019-05-07T21:56:14.795Z,99.90
2019-05-07T21:58:48.515Z,99.90
2019-05-07T22:01:23.475Z,99.90
2019-05-07T22:03:52.554Z,99.90
2019-05-07T22:06:22.485Z,99.90
2019-05-07T22:08:49.735Z,99.90
2019-05-07T22:11:17.424Z,99.90
2019-05-07T22:13:44.851Z,99.90
2019-05-07T22:16:13.288Z,99.90
2019-05-07T22:18:42.726Z,99.90
2019-05-07T22:21:12.381Z,99.90
2019-05-07T22:23:42.565Z,99.90
2019-05-07T22:26:20.251Z,99.90
2019-05-07T22:28:39.274Z,99.90
2019-05-07T22:31:32.586Z,99.90
2019-05-07T22:34:09.917Z,99.90
2019-05-07T22:36:37.410Z,99.90
2019-05-07T22:39:05.479Z,99.90
2019-05-07T22:41:32.634Z,99.90
2019-05-07T22:44:02.270Z,99.90
2019-05-07T22:46:29.069Z,99.90
2019-05-07T22:48:56.222Z,99.90
2019-05-07T22:51:23.392Z,99.90
2019-05-07T22:53:50.543Z,99.90
2019-05-07T22:56:30.446Z,99.90
2019-05-07T22:58:50.343Z,99.90
2019-05-07T23:01:17.631Z,99.90
2019-05-07T23:03:44.778Z,99.90
2019-05-07T23:06:12.407Z,99.90
2019-05-07T23:08:42.287Z,99.90
2019-05-07T23:11:09.166Z,99.90
2019-05-07T23:13:36.698Z,99.90
2019-05-07T23:16:05.148Z,99.90
2019-05-07T23:18:32.507Z,99.90
2019-05-07T23:20:59.953Z,99.90
2019-05-07T23:23:27.204Z,99.90
2019-05-07T23:25:54.512Z,99.90
2019-05-07T23:28:22.955Z,99.90
2019-05-07T23:30:51.857Z,99.90
2019-05-07T23:33:32.163Z,99.90
2019-05-07T23:35:59.366Z,99.90
2019-05-07T23:38:26.578Z,99.90
2019-05-07T23:41:02.180Z,99.90
2019-05-07T23:43:29.453Z,99.90
2019-05-07T23:45:56.715Z,99.90
2019-05-07T23:48:23.979Z,99.90
2019-05-07T23:50:52.524Z,99.90
2019-05-07T23:53:22.349Z,99.90
2019-05-07T23:55:49.216Z,99.90
2019-05-07T23:58:16.360Z,99.90
